Time;durP1;ratioP1;P1;durP2;ratioP2;P2;SDS_P1;SDS_P2;PMS_P1;PMS_P2;Temp;Humidity;BMP_temperature;BMP_pressure;BME280_temperature;BME280_humidity;BME280_pressure;Samples;Min_cycle;Max_cycle;Signal;HPM_P1;HPM_P2
2022/06/01 00:02:36;;;;;;;3.43;2.40;;;;;;;;;;6001462;29;20330;-74
2022/06/01 00:05:57;;;;;;;2.23;2.10;;;;;;;;;;6006564;29;20235;-73
2022/06/01 00:09:17;;;;;;;2.23;2.00;;;;;;;;;;6002680;29;20317;-72
2022/06/01 00:12:39;;;;;;;2.23;2.03;;;;;;;;;;6004050;29;20234;-72
2022/06/01 00:15:59;;;;;;;2.50;2.30;;;;;;;;;;6008008;29;20239;-73
2022/06/01 00:19:20;;;;;;;2.20;2.10;;;;;;;;;;5998635;29;20247;-72
2022/06/01 00:22:41;;;;;;;2.73;2.53;;;;;;;;;;6005962;29;20227;-73
2022/06/01 00:26:02;;;;;;;3.63;3.03;;;;;;;;;;6008349;29;20313;-71
2022/06/01 00:29:24;;;;;;;2.53;2.33;;;;;;;;;;6005922;29;20246;-73
2022/06/01 00:32:44;;;;;;;2.60;2.40;;;;;;;;;;5998242;29;20234;-73
2022/06/01 00:36:07;;;;;;;2.73;2.53;;;;;;;;;;6007939;29;20999;-72
2022/06/01 00:39:28;;;;;;;5.17;2.00;;;;;;;;;;6003802;29;20234;-72
2022/06/01 00:42:50;;;;;;;2.53;2.23;;;;;;;;;;6001783;29;20254;-72
2022/06/01 00:46:12;;;;;;;1.93;1.80;;;;;;;;;;6003451;29;20243;-72
2022/06/01 00:49:34;;;;;;;2.13;1.97;;;;;;;;;;5977704;29;20626;-72
2022/06/01 00:52:56;;;;;;;2.73;1.83;;;;;;;;;;5995840;29;20246;-72
2022/06/01 00:56:18;;;;;;;3.03;2.20;;;;;;;;;;6005163;29;20258;-72
2022/06/01 00:59:42;;;;;;;1.83;1.63;;;;;;;;;;5999311;29;20246;-72
2022/06/01 01:03:05;;;;;;;2.43;2.13;;;;;;;;;;5999024;29;20762;-72
2022/06/01 01:06:26;;;;;;;3.47;2.20;;;;;;;;;;6001267;29;20246;-72
2022/06/01 01:09:47;;;;;;;3.87;1.90;;;;;;;;;;5997414;29;20227;-72
2022/06/01 01:13:09;;;;;;;1.87;1.77;;;;;;;;;;5998214;29;20951;-73
2022/06/01 01:16:30;;;;;;;2.13;1.90;;;;;;;;;;5986396;29;20235;-72
2022/06/01 01:19:52;;;;;;;2.83;1.60;;;;;;;;;;5989293;29;20243;-72
2022/06/01 01:23:19;;;;;;;1.63;1.53;;;;;;;;;;5997739;29;21203;-73
2022/06/01 01:26:43;;;;;;;1.37;1.27;;;;;;;;;;5990543;29;20262;-72
2022/06/01 01:30:23;;;;;;;1.93;1.83;;;;;;;;;;5992651;29;20567;-73
2022/06/01 01:33:44;;;;;;;2.00;1.80;;;;;;;;;;5987951;29;20268;-72
2022/06/01 01:37:08;;;;;;;2.00;1.87;;;;;;;;;;6007593;29;20231;-73
2022/06/01 01:40:29;;;;;;;3.37;1.87;;;;;;;;;;6005473;29;20243;-72
2022/06/01 01:43:55;;;;;;;2.93;2.00;;;;;;;;;;5985506;29;20563;-72
2022/06/01 01:47:15;;;;;;;2.67;1.93;;;;;;;;;;6003419;29;20227;-72
2022/06/01 01:50:36;;;;;;;1.83;1.73;;;;;;;;;;6007344;29;20227;-71
2022/06/01 01:53:59;;;;;;;2.30;1.83;;;;;;;;;;6009466;29;20357;-72
2022/06/01 01:57:25;;;;;;;1.93;1.83;;;;;;;;;;6010045;29;20564;-73
2022/06/01 02:00:49;;;;;;;1.70;1.60;;;;;;;;;;6001145;29;20262;-72
2022/06/01 02:06:03;;;;;;;1.70;1.60;;;;;;;;;;6006368;29;20509;-73
2022/06/01 02:07:58;;;;;;;1.77;1.47;;;;;;;;;;6003799;29;20230;-71
2022/06/01 02:15:00;;;;;;;1.67;1.57;;;;;;;;;;6006573;29;20246;-73
2022/06/01 02:18:27;;;;;;;1.87;1.70;;;;;;;;;;6011858;29;20237;-72
2022/06/01 02:21:48;;;;;;;1.70;1.60;;;;;;;;;;6001516;29;20238;-72
2022/06/01 02:25:10;;;;;;;2.30;2.10;;;;;;;;;;6002774;29;20242;-73
2022/06/01 02:28:31;;;;;;;2.53;2.33;;;;;;;;;;6000950;29;20617;-72
2022/06/01 02:31:52;;;;;;;2.60;2.20;;;;;;;;;;6003070;29;20559;-73
2022/06/01 02:35:15;;;;;;;1.97;1.87;;;;;;;;;;6005089;29;20242;-73
2022/06/01 02:38:39;;;;;;;2.43;2.23;;;;;;;;;;6006220;29;20258;-72
2022/06/01 02:42:29;;;;;;;1.83;1.67;;;;;;;;;;6002117;29;20230;-73
2022/06/01 02:45:49;;;;;;;2.77;2.57;;;;;;;;;;6007360;29;20516;-72
2022/06/01 02:49:10;;;;;;;10.73;9.83;;;;;;;;;;6011977;29;20238;-73
2022/06/01 02:52:32;;;;;;;5.30;3.67;;;;;;;;;;6001497;29;20231;-72
2022/06/01 02:55:52;;;;;;;2.73;1.97;;;;;;;;;;6004821;29;20242;-73
2022/06/01 02:59:15;;;;;;;2.03;1.93;;;;;;;;;;6005487;29;20317;-72
2022/06/01 03:02:39;;;;;;;2.97;2.43;;;;;;;;;;6001428;29;20234;-73
2022/06/01 03:06:00;;;;;;;3.43;2.50;;;;;;;;;;6004524;29;20238;-73
2022/06/01 03:09:22;;;;;;;2.90;2.27;;;;;;;;;;6002576;29;20314;-72
2022/06/01 03:12:43;;;;;;;19.27;17.67;;;;;;;;;;6008145;29;20314;-73
2022/06/01 03:16:04;;;;;;;23.20;20.90;;;;;;;;;;6004151;29;20235;-73
2022/06/01 03:19:24;;;;;;;7.90;6.80;;;;;;;;;;6008196;29;20321;-73
2022/06/01 03:22:45;;;;;;;6.50;5.53;;;;;;;;;;6000877;29;20258;-72
2022/06/01 03:26:07;;;;;;;4.53;3.63;;;;;;;;;;6003588;29;20266;-73
2022/06/01 03:29:28;;;;;;;2.50;2.20;;;;;;;;;;6004570;29;20243;-72
2022/06/01 03:32:49;;;;;;;2.00;1.90;;;;;;;;;;6001096;29;20575;-73
2022/06/01 03:36:10;;;;;;;3.33;2.87;;;;;;;;;;6002537;29;20239;-73
2022/06/01 03:39:31;;;;;;;2.20;2.00;;;;;;;;;;6003093;29;20234;-73
2022/06/01 03:42:53;;;;;;;2.53;2.33;;;;;;;;;;6003378;29;20266;-73
2022/06/01 03:46:12;;;;;;;2.13;1.93;;;;;;;;;;6005384;29;20493;-73
2022/06/01 03:49:33;;;;;;;1.83;1.73;;;;;;;;;;6006731;29;20227;-74
2022/06/01 03:52:54;;;;;;;3.23;2.47;;;;;;;;;;6001782;29;20231;-72
2022/06/01 03:56:15;;;;;;;3.00;2.80;;;;;;;;;;6001905;29;20226;-73
2022/06/01 03:59:37;;;;;;;2.57;2.40;;;;;;;;;;6001468;29;20322;-74
2022/06/01 04:02:57;;;;;;;2.03;1.90;;;;;;;;;;6002514;29;20242;-73
2022/06/01 04:06:17;;;;;;;10.97;9.97;;;;;;;;;;6006726;29;20231;-73
2022/06/01 04:09:38;;;;;;;4.20;3.80;;;;;;;;;;6007292;29;20230;-73
2022/06/01 04:12:58;;;;;;;3.33;3.10;;;;;;;;;;6012569;29;20267;-74
2022/06/01 04:16:20;;;;;;;2.60;2.40;;;;;;;;;;6007295;29;20649;-73
2022/06/01 04:19:41;;;;;;;2.43;2.23;;;;;;;;;;6003750;29;20246;-73
2022/06/01 04:23:02;;;;;;;3.80;3.40;;;;;;;;;;5999967;29;20235;-73
2022/06/01 04:26:22;;;;;;;3.77;3.47;;;;;;;;;;6003009;29;20235;-72
2022/06/01 04:29:43;;;;;;;3.30;3.00;;;;;;;;;;6003357;29;20238;-73
2022/06/01 04:33:05;;;;;;;3.40;3.00;;;;;;;;;;6002683;29;20234;-73
2022/06/01 04:36:25;;;;;;;2.50;2.30;;;;;;;;;;6003350;29;20235;-73
2022/06/01 04:39:46;;;;;;;3.93;2.77;;;;;;;;;;6004042;29;20500;-73
2022/06/01 04:43:06;;;;;;;2.80;2.60;;;;;;;;;;6005221;29;20227;-73
2022/06/01 04:46:27;;;;;;;2.53;2.33;;;;;;;;;;6010938;29;20243;-72
2022/06/01 04:49:49;;;;;;;3.63;2.67;;;;;;;;;;6004857;29;20231;-73
2022/06/01 04:53:09;;;;;;;3.37;2.63;;;;;;;;;;6006771;29;20234;-73
2022/06/01 04:56:30;;;;;;;2.90;2.70;;;;;;;;;;6003849;29;20353;-73
2022/06/01 04:59:51;;;;;;;3.70;2.60;;;;;;;;;;6008392;29;20338;-73
2022/06/01 05:03:12;;;;;;;3.33;3.13;;;;;;;;;;6002253;29;20265;-73
2022/06/01 05:06:34;;;;;;;2.80;2.60;;;;;;;;;;6004821;29;20533;-73
2022/06/01 05:09:54;;;;;;;2.77;2.57;;;;;;;;;;6003796;29;20230;-72
2022/06/01 05:13:17;;;;;;;3.43;3.13;;;;;;;;;;6002329;29;20231;-73
2022/06/01 05:16:38;;;;;;;3.13;2.80;;;;;;;;;;6007127;29;21191;-73
2022/06/01 05:19:59;;;;;;;3.23;2.77;;;;;;;;;;6009086;29;20264;-72
2022/06/01 05:23:21;;;;;;;5.73;2.77;;;;;;;;;;6009158;29;20230;-72
2022/06/01 05:26:41;;;;;;;4.53;3.20;;;;;;;;;;6008748;29;20242;-74
2022/06/01 05:30:03;;;;;;;4.50;3.10;;;;;;;;;;6004234;29;20234;-73
2022/06/01 05:33:24;;;;;;;3.27;2.97;;;;;;;;;;6004331;29;20255;-72
2022/06/01 05:36:44;;;;;;;3.87;3.13;;;;;;;;;;5997653;29;20234;-72
2022/06/01 05:40:07;;;;;;;3.23;2.97;;;;;;;;;;5990834;29;20357;-73
2022/06/01 05:43:28;;;;;;;4.17;3.77;;;;;;;;;;5999286;29;20317;-70
2022/06/01 05:46:53;;;;;;;3.63;3.33;;;;;;;;;;6000721;29;20238;-71
2022/06/01 05:50:14;;;;;;;5.70;3.70;;;;;;;;;;6006311;29;20242;-72
2022/06/01 05:53:35;;;;;;;5.97;3.70;;;;;;;;;;6006073;29;20238;-71
2022/06/01 05:56:56;;;;;;;6.00;5.00;;;;;;;;;;6003144;29;20620;-71
2022/06/01 06:00:17;;;;;;;4.50;4.10;;;;;;;;;;5999143;29;20348;-74
2022/06/01 06:03:38;;;;;;;5.07;4.27;;;;;;;;;;6008092;29;20246;-72
2022/06/01 06:06:58;;;;;;;7.37;6.03;;;;;;;;;;6007513;29;20234;-70
2022/06/01 06:10:19;;;;;;;7.37;6.87;;;;;;;;;;6004591;29;20868;-69
2022/06/01 06:13:41;;;;;;;7.93;7.33;;;;;;;;;;5998855;29;20234;-72
2022/06/01 06:17:01;;;;;;;9.00;8.20;;;;;;;;;;6011180;29;20235;-73
2022/06/01 06:20:22;;;;;;;9.63;8.60;;;;;;;;;;6013451;29;20246;-74
2022/06/01 06:23:42;;;;;;;10.70;9.80;;;;;;;;;;6008224;29;20613;-71
2022/06/01 06:27:03;;;;;;;9.90;9.20;;;;;;;;;;6014884;29;20319;-72
2022/06/01 06:30:25;;;;;;;10.20;9.33;;;;;;;;;;6009444;29;20728;-70
2022/06/01 06:33:46;;;;;;;9.37;8.57;;;;;;;;;;6015071;29;20520;-72
2022/06/01 06:37:06;;;;;;;10.93;9.90;;;;;;;;;;5997474;29;20330;-71
2022/06/01 06:40:27;;;;;;;10.07;9.17;;;;;;;;;;6004432;29;20242;-71
2022/06/01 06:43:48;;;;;;;8.40;7.63;;;;;;;;;;5996760;29;20238;-71
2022/06/01 06:47:10;;;;;;;7.93;7.40;;;;;;;;;;6011471;29;20230;-69
2022/06/01 06:50:31;;;;;;;11.87;8.93;;;;;;;;;;6008280;29;20242;-69
2022/06/01 06:53:51;;;;;;;8.70;7.90;;;;;;;;;;5991160;29;20912;-69
2022/06/01 06:57:12;;;;;;;16.43;15.03;;;;;;;;;;6008007;29;20254;-70
2022/06/01 07:00:33;;;;;;;12.93;11.73;;;;;;;;;;6009489;29;20234;-69
2022/06/01 07:03:55;;;;;;;12.60;11.60;;;;;;;;;;6008894;29;20823;-72
2022/06/01 07:07:15;;;;;;;10.47;9.53;;;;;;;;;;5998370;29;20243;-71
2022/06/01 07:10:36;;;;;;;10.33;8.07;;;;;;;;;;6006515;29;20675;-71
2022/06/01 07:13:56;;;;;;;8.07;7.27;;;;;;;;;;6003532;29;20234;-72
2022/06/01 07:17:17;;;;;;;7.67;7.07;;;;;;;;;;6005326;29;20234;-73
2022/06/01 07:20:39;;;;;;;7.10;6.50;;;;;;;;;;6007488;29;20246;-72
2022/06/01 07:24:00;;;;;;;6.27;5.77;;;;;;;;;;6006312;29;20243;-71
2022/06/01 07:27:20;;;;;;;8.27;7.50;;;;;;;;;;6007364;29;20238;-72
2022/06/01 07:30:41;;;;;;;7.93;7.03;;;;;;;;;;5989598;29;20254;-70
2022/06/01 07:34:01;;;;;;;7.93;7.33;;;;;;;;;;5987626;29;20235;-70
2022/06/01 07:44:40;;;;;;;11.70;10.73;;;;;;;;;;6006248;29;20606;-69
2022/06/01 07:48:01;;;;;;;24.23;21.93;;;;;;;;;;6001243;29;20243;-68
2022/06/01 07:51:22;;;;;;;5.97;5.47;;;;;;;;;;6008527;29;20283;-69
2022/06/01 07:54:44;;;;;;;6.23;5.73;;;;;;;;;;6000042;29;20684;-71
2022/06/01 07:58:05;;;;;;;5.13;4.60;;;;;;;;;;6007523;29;20235;-73
2022/06/01 08:01:26;;;;;;;6.53;5.93;;;;;;;;;;6002345;29;20252;-73
2022/06/01 08:04:46;;;;;;;6.70;6.13;;;;;;;;;;6005566;29;20242;-68
2022/06/01 08:08:06;;;;;;;7.37;6.27;;;;;;;;;;5986675;29;20230;-71
2022/06/01 08:15:04;;;;;;;7.87;6.53;;;;;;;;;;5992467;29;20227;-72
2022/06/01 08:18:25;;;;;;;6.70;6.10;;;;;;;;;;6004260;29;20536;-73
2022/06/01 08:21:46;;;;;;;8.60;7.90;;;;;;;;;;6009132;29;20246;-72
2022/06/01 08:25:07;;;;;;;8.00;7.33;;;;;;;;;;5993473;29;20234;-73
2022/06/01 08:28:29;;;;;;;7.50;6.90;;;;;;;;;;6001493;29;20235;-74
2022/06/01 08:31:50;;;;;;;6.33;5.73;;;;;;;;;;6008965;29;20621;-73
2022/06/01 08:35:11;;;;;;;8.43;7.63;;;;;;;;;;6010315;29;20238;-73
2022/06/01 08:38:33;;;;;;;7.07;6.57;;;;;;;;;;5996606;29;20321;-69
2022/06/01 08:41:55;;;;;;;6.30;5.80;;;;;;;;;;6009306;29;20250;-73
2022/06/01 08:45:17;;;;;;;7.73;7.13;;;;;;;;;;6006978;29;20570;-75
2022/06/01 08:48:40;;;;;;;7.23;6.63;;;;;;;;;;6014249;29;20270;-72
2022/06/01 08:52:01;;;;;;;7.97;7.33;;;;;;;;;;6012982;29;20230;-71
2022/06/01 08:55:22;;;;;;;5.83;5.33;;;;;;;;;;6010371;29;20722;-69
2022/06/01 08:58:44;;;;;;;6.20;5.60;;;;;;;;;;6006374;29;20322;-72
2022/06/01 09:02:16;;;;;;;6.20;5.70;;;;;;;;;;6001298;29;20251;-73
2022/06/01 09:05:41;;;;;;;6.43;5.93;;;;;;;;;;5972512;29;20239;-70
2022/06/01 09:09:04;;;;;;;6.03;5.20;;;;;;;;;;6013626;29;20234;-71
2022/06/01 09:12:25;;;;;;;4.47;4.17;;;;;;;;;;5991661;29;20238;-70
2022/06/01 09:15:46;;;;;;;4.17;3.87;;;;;;;;;;6007132;29;20246;-72
2022/06/01 09:19:11;;;;;;;5.00;4.57;;;;;;;;;;5989648;29;20231;-70
2022/06/01 09:22:40;;;;;;;4.73;4.23;;;;;;;;;;5996615;29;20247;-73
2022/06/01 09:26:03;;;;;;;4.13;3.87;;;;;;;;;;6012647;29;20227;-72
2022/06/01 09:29:25;;;;;;;17.27;15.80;;;;;;;;;;6001067;29;20247;-73
2022/06/01 09:32:59;;;;;;;4.67;3.97;;;;;;;;;;6005751;29;20612;-73
2022/06/01 09:36:28;;;;;;;3.20;2.93;;;;;;;;;;6015224;29;20995;-73
2022/06/01 09:39:50;;;;;;;3.47;3.17;;;;;;;;;;5999545;29;20893;-72
2022/06/01 09:43:21;;;;;;;2.97;2.77;;;;;;;;;;6007987;29;20238;-72
2022/06/01 09:46:50;;;;;;;4.00;3.70;;;;;;;;;;6017011;29;20245;-70
2022/06/01 09:50:27;;;;;;;17.00;15.50;;;;;;;;;;6007505;29;20313;-73
2022/06/01 09:53:51;;;;;;;4.97;4.57;;;;;;;;;;6012834;29;20262;-71
2022/06/01 09:57:17;;;;;;;2.90;2.70;;;;;;;;;;6009889;29;20222;-71
2022/06/01 10:08:06;;;;;;;2.97;2.67;;;;;;;;;;6003887;29;20590;-69
2022/06/01 10:11:30;;;;;;;3.40;3.15;;;;;;;;;;6013010;29;20249;-69
2022/06/01 10:14:52;;;;;;;2.95;2.70;;;;;;;;;;6016928;29;20243;-69
2022/06/01 10:18:14;;;;;;;3.25;2.92;;;;;;;;;;6013461;29;20239;-70
2022/06/01 10:21:43;;;;;;;4.13;2.83;;;;;;;;;;6009969;29;20234;-69
2022/06/01 10:25:06;;;;;;;2.80;2.60;;;;;;;;;;6014617;29;20234;-69
2022/06/01 10:28:31;;;;;;;2.97;2.75;;;;;;;;;;6001113;29;20250;-69
2022/06/01 10:31:54;;;;;;;3.35;2.50;;;;;;;;;;6014973;29;20325;-70
2022/06/01 10:35:18;;;;;;;2.10;2.00;;;;;;;;;;6012256;29;20314;-70
2022/06/01 10:38:41;;;;;;;2.38;2.17;;;;;;;;;;6011648;29;20238;-71
2022/06/01 10:42:05;;;;;;;3.25;2.17;;;;;;;;;;6017774;29;20622;-69
2022/06/01 10:45:29;;;;;;;2.20;2.10;;;;;;;;;;5995830;29;20247;-69
2022/06/01 10:48:53;;;;;;;3.25;3.05;;;;;;;;;;6005030;29;20272;-69
2022/06/01 10:52:19;;;;;;;2.35;2.15;;;;;;;;;;6014442;29;20230;-71
2022/06/01 10:55:42;;;;;;;2.92;2.28;;;;;;;;;;6016569;29;20684;-72
2022/06/01 10:59:04;;;;;;;2.80;2.60;;;;;;;;;;6007816;29;20243;-75
2022/06/01 11:02:38;;;;;;;2.25;2.15;;;;;;;;;;6010792;29;20246;-72
2022/06/01 11:06:03;;;;;;;3.33;3.13;;;;;;;;;;6011027;29;20237;-73
2022/06/01 11:09:27;;;;;;;6.43;5.20;;;;;;;;;;6014782;29;20250;-74
2022/06/01 11:12:55;;;;;;;3.78;3.42;;;;;;;;;;6013908;29;20226;-74
2022/06/01 11:16:22;;;;;;;3.83;3.30;;;;;;;;;;6014027;29;20239;-71
2022/06/01 11:19:49;;;;;;;3.72;3.42;;;;;;;;;;6016797;29;20243;-75
2022/06/01 11:23:15;;;;;;;3.28;3.08;;;;;;;;;;6016530;29;20240;-75
2022/06/01 11:26:44;;;;;;;21.63;5.40;;;;;;;;;;6011105;29;20504;-74
2022/06/01 11:30:08;;;;;;;4.28;3.70;;;;;;;;;;6004151;29;20257;-73
2022/06/01 11:33:32;;;;;;;2.85;2.65;;;;;;;;;;6011435;29;20252;-70
2022/06/01 11:36:56;;;;;;;4.90;3.53;;;;;;;;;;6004687;29;20513;-75
2022/06/01 11:40:18;;;;;;;6.05;4.60;;;;;;;;;;6000560;29;20242;-72
2022/06/01 11:43:40;;;;;;;3.67;2.90;;;;;;;;;;5989226;29;21044;-71
2022/06/01 11:47:03;;;;;;;5.53;4.85;;;;;;;;;;5995708;29;20246;-72
2022/06/01 11:50:25;;;;;;;4.75;4.43;;;;;;;;;;5994418;29;21899;-73
2022/06/01 11:53:55;;;;;;;3.85;3.60;;;;;;;;;;6012745;29;20234;-70
2022/06/01 11:57:22;;;;;;;5.13;4.63;;;;;;;;;;6012441;29;20254;-72
2022/06/01 12:00:51;;;;;;;4.78;4.30;;;;;;;;;;6010555;29;20236;-74
2022/06/01 12:04:16;;;;;;;5.63;5.13;;;;;;;;;;6009697;29;20337;-70
2022/06/01 12:07:39;;;;;;;5.30;4.65;;;;;;;;;;6012871;29;20239;-68
2022/06/01 12:11:03;;;;;;;5.53;5.13;;;;;;;;;;6017013;29;20243;-72
2022/06/01 12:14:28;;;;;;;6.88;5.38;;;;;;;;;;6005571;29;20257;-69
2022/06/01 12:17:59;;;;;;;6.15;5.55;;;;;;;;;;6007392;29;20234;-70
2022/06/01 12:21:29;;;;;;;5.75;5.25;;;;;;;;;;6007995;29;20734;-69
2022/06/01 12:28:33;;;;;;;5.88;5.38;;;;;;;;;;6012037;29;20250;-74
2022/06/01 12:32:12;;;;;;;6.88;6.38;;;;;;;;;;6010525;29;20350;-74
2022/06/01 12:35:34;;;;;;;5.90;5.40;;;;;;;;;;6013840;29;20254;-71
2022/06/01 12:38:55;;;;;;;7.00;6.22;;;;;;;;;;5995090;29;20322;-73
2022/06/01 12:42:18;;;;;;;5.82;5.22;;;;;;;;;;6002033;29;20322;-72
2022/06/01 12:45:41;;;;;;;6.78;6.15;;;;;;;;;;5987641;29;20555;-71
2022/06/01 12:49:20;;;;;;;8.88;8.05;;;;;;;;;;6012058;29;20238;-73
2022/06/01 12:52:41;;;;;;;9.68;8.90;;;;;;;;;;6005887;29;20234;-69
2022/06/01 12:56:06;;;;;;;9.35;8.60;;;;;;;;;;6005042;29;20231;-71
2022/06/01 12:59:30;;;;;;;8.50;7.82;;;;;;;;;;6013366;29;20246;-71
2022/06/01 13:02:52;;;;;;;10.13;9.43;;;;;;;;;;6007878;29;20514;-71
2022/06/01 13:06:15;;;;;;;10.82;10.02;;;;;;;;;;6001063;29;20935;-72
2022/06/01 13:09:36;;;;;;;9.07;8.38;;;;;;;;;;6010249;29;20243;-72
2022/06/01 13:13:05;;;;;;;10.57;9.68;;;;;;;;;;6009820;29;20566;-70
2022/06/01 13:16:34;;;;;;;13.38;12.20;;;;;;;;;;6015537;29;20427;-73
2022/06/01 13:20:00;;;;;;;13.52;12.23;;;;;;;;;;6023159;29;20317;-72
2022/06/01 13:23:25;;;;;;;13.40;12.25;;;;;;;;;;6021864;29;20326;-73
2022/06/01 13:26:47;;;;;;;12.20;11.18;;;;;;;;;;6018526;29;20330;-73
2022/06/01 13:30:08;;;;;;;7.82;7.07;;;;;;;;;;6014884;29;20519;-72
2022/06/01 13:33:31;;;;;;;5.88;5.38;;;;;;;;;;6011814;29;20242;-72
2022/06/01 13:36:53;;;;;;;3.03;2.83;;;;;;;;;;6016508;29;21003;-71
2022/06/01 13:40:22;;;;;;;2.00;1.90;;;;;;;;;;6008020;29;20231;-70
2022/06/01 13:43:44;;;;;;;3.17;2.47;;;;;;;;;;5997073;29;20279;-69
2022/06/01 13:47:05;;;;;;;3.27;3.07;;;;;;;;;;6014014;29;20247;-70
2022/06/01 13:50:27;;;;;;;2.87;2.57;;;;;;;;;;6011475;29;20585;-69
2022/06/01 13:53:49;;;;;;;1.97;1.87;;;;;;;;;;6014175;29;20262;-69
2022/06/01 13:57:14;;;;;;;1.83;1.73;;;;;;;;;;6020929;29;20238;-69
2022/06/01 14:00:37;;;;;;;2.25;2.05;;;;;;;;;;6015332;29;20258;-71
2022/06/01 14:03:58;;;;;;;2.37;2.27;;;;;;;;;;6016819;29;20235;-69
2022/06/01 14:07:20;;;;;;;4.60;4.28;;;;;;;;;;6007971;29;20234;-74
2022/06/01 14:10:46;;;;;;;7.63;6.93;;;;;;;;;;6003934;29;20778;-74
2022/06/01 14:14:09;;;;;;;3.38;2.85;;;;;;;;;;6021461;29;20255;-74
2022/06/01 14:17:30;;;;;;;4.43;3.05;;;;;;;;;;6014116;29;20550;-74
2022/06/01 14:20:51;;;;;;;2.80;2.60;;;;;;;;;;6021517;29;20243;-74
2022/06/01 14:24:12;;;;;;;2.80;2.60;;;;;;;;;;6017640;29;20712;-73
2022/06/01 14:31:12;;;;;;;3.38;3.08;;;;;;;;;;6011789;29;20300;-73
2022/06/01 14:34:33;;;;;;;4.35;3.35;;;;;;;;;;6018115;29;20564;-73
2022/06/01 14:37:54;;;;;;;5.72;3.13;;;;;;;;;;6017685;29;20238;-74
2022/06/01 14:41:19;;;;;;;2.75;2.55;;;;;;;;;;6011969;29;20231;-74
2022/06/01 14:44:41;;;;;;;3.17;2.92;;;;;;;;;;6016391;29;20242;-74
2022/06/01 14:48:02;;;;;;;2.45;2.35;;;;;;;;;;6010973;29;20605;-74
2022/06/01 14:51:24;;;;;;;2.78;2.58;;;;;;;;;;6010942;29;20234;-74
2022/06/01 14:54:45;;;;;;;3.28;2.80;;;;;;;;;;6002951;29;20235;-74
2022/06/01 14:58:06;;;;;;;5.10;2.95;;;;;;;;;;6016809;29;20750;-73
2022/06/01 15:01:30;;;;;;;15.38;3.83;;;;;;;;;;6013418;29;20601;-73
2022/06/01 15:04:54;;;;;;;3.15;2.95;;;;;;;;;;6015517;29;20603;-73
2022/06/01 15:08:15;;;;;;;4.35;3.05;;;;;;;;;;6018454;29;20235;-74
2022/06/01 15:11:36;;;;;;;3.63;3.33;;;;;;;;;;6012429;29;20593;-73
2022/06/01 15:14:56;;;;;;;3.55;3.35;;;;;;;;;;6009888;29;20231;-75
2022/06/01 15:18:18;;;;;;;3.37;3.10;;;;;;;;;;6020439;29;20341;-74
2022/06/01 15:21:39;;;;;;;3.70;3.40;;;;;;;;;;6017500;29;20227;-74
2022/06/01 15:25:00;;;;;;;2.70;2.50;;;;;;;;;;6019899;29;20262;-73
2022/06/01 15:28:21;;;;;;;2.92;2.30;;;;;;;;;;6006675;29;20330;-74
2022/06/01 15:42:37;;;;;;;4.07;3.10;;;;;;;;;;6013760;29;20594;-73
2022/06/01 15:45:58;;;;;;;3.80;3.60;;;;;;;;;;6010137;29;20226;-73
2022/06/01 15:49:19;;;;;;;4.17;3.87;;;;;;;;;;6015111;29;20234;-74
2022/06/01 15:52:41;;;;;;;9.03;8.20;;;;;;;;;;6011285;29;20492;-74
2022/06/01 15:56:02;;;;;;;8.40;7.70;;;;;;;;;;5997675;29;20239;-73
2022/06/01 15:59:22;;;;;;;16.90;15.13;;;;;;;;;;6002740;29;20234;-73
2022/06/01 16:02:43;;;;;;;43.55;39.40;;;;;;;;;;6004500;29;21297;-74
2022/06/01 16:06:04;;;;;;;24.27;21.97;;;;;;;;;;6006827;29;21145;-72
2022/06/01 16:09:26;;;;;;;46.15;42.20;;;;;;;;;;6006532;29;20235;-72
2022/06/01 16:12:47;;;;;;;42.03;37.83;;;;;;;;;;6008356;29;20235;-69
2022/06/01 16:16:08;;;;;;;60.60;45.00;;;;;;;;;;6010662;29;21712;-72
2022/06/01 16:19:29;;;;;;;46.17;42.70;;;;;;;;;;6004383;29;21015;-73
2022/06/01 16:22:50;;;;;;;7.57;6.90;;;;;;;;;;6008756;29;20333;-72
2022/06/01 16:26:12;;;;;;;6.40;5.80;;;;;;;;;;6008907;29;20232;-72
2022/06/01 16:29:32;;;;;;;26.67;24.00;;;;;;;;;;6005714;29;20330;-73
2022/06/01 16:32:54;;;;;;;11.90;10.83;;;;;;;;;;6014265;29;20317;-72
2022/06/01 16:36:28;;;;;;;10.07;9.10;;;;;;;;;;6007066;29;20235;-74
2022/06/01 16:39:49;;;;;;;9.20;8.40;;;;;;;;;;6012685;29;20333;-74
2022/06/01 16:43:10;;;;;;;6.17;5.57;;;;;;;;;;6010620;29;20322;-73
2022/06/01 16:46:31;;;;;;;10.57;9.68;;;;;;;;;;6009397;29;20243;-73
2022/06/01 16:49:52;;;;;;;22.65;20.52;;;;;;;;;;6014907;29;20246;-73
2022/06/01 16:53:12;;;;;;;15.80;14.30;;;;;;;;;;6005015;29;20244;-73
2022/06/01 16:56:33;;;;;;;11.30;10.10;;;;;;;;;;6012589;29;20234;-73
2022/06/01 16:59:56;;;;;;;19.05;17.20;;;;;;;;;;6004129;29;20631;-74
2022/06/01 17:03:17;;;;;;;13.23;12.00;;;;;;;;;;5992195;29;20242;-74
2022/06/01 17:06:38;;;;;;;13.57;12.18;;;;;;;;;;6008125;29;20233;-75
2022/06/01 17:09:59;;;;;;;5.00;4.60;;;;;;;;;;6003929;29;20502;-74
2022/06/01 17:13:20;;;;;;;10.95;8.32;;;;;;;;;;6000946;29;20323;-73
2022/06/01 17:16:42;;;;;;;5.90;5.50;;;;;;;;;;6008629;29;20511;-73
2022/06/01 17:20:04;;;;;;;7.13;6.07;;;;;;;;;;6007202;29;20234;-72
2022/06/01 17:23:25;;;;;;;8.95;8.25;;;;;;;;;;6010043;29;21189;-68
2022/06/01 17:26:45;;;;;;;6.63;6.13;;;;;;;;;;6017131;29;20227;-68
2022/06/01 17:30:06;;;;;;;6.73;6.23;;;;;;;;;;6010234;29;20677;-69
2022/06/01 17:33:30;;;;;;;7.50;6.90;;;;;;;;;;6007455;29;20238;-71
2022/06/01 17:36:50;;;;;;;10.43;9.43;;;;;;;;;;6002057;29;20246;-68
2022/06/01 17:40:12;;;;;;;12.80;11.70;;;;;;;;;;6010663;29;20431;-68
2022/06/01 17:43:32;;;;;;;12.50;11.40;;;;;;;;;;6010896;29;20325;-70
2022/06/01 17:46:53;;;;;;;6.97;6.47;;;;;;;;;;6010653;29;20255;-69
2022/06/01 17:50:17;;;;;;;6.57;5.97;;;;;;;;;;6010795;29;20322;-70
2022/06/01 17:53:39;;;;;;;7.13;6.57;;;;;;;;;;6014902;29;20269;-72
2022/06/01 17:57:00;;;;;;;7.13;6.57;;;;;;;;;;6019202;29;20226;-71
2022/06/01 18:00:21;;;;;;;6.37;5.87;;;;;;;;;;6014051;29;20234;-72
2022/06/01 18:03:41;;;;;;;6.10;5.53;;;;;;;;;;6001173;29;20669;-78
2022/06/01 18:07:03;;;;;;;8.13;7.53;;;;;;;;;;6007134;29;20230;-74
2022/06/01 18:10:24;;;;;;;5.63;5.17;;;;;;;;;;6014570;29;20279;-73
2022/06/01 18:13:44;;;;;;;5.30;4.90;;;;;;;;;;6014456;29;20321;-75
2022/06/01 18:17:06;;;;;;;6.20;5.70;;;;;;;;;;6004606;29;20317;-74
2022/06/01 18:20:29;;;;;;;5.80;5.30;;;;;;;;;;6001410;29;20247;-73
2022/06/01 18:23:51;;;;;;;7.93;7.30;;;;;;;;;;6006834;29;20258;-74
2022/06/01 18:27:11;;;;;;;7.90;7.30;;;;;;;;;;6012837;29;20235;-75
2022/06/01 18:30:32;;;;;;;10.73;9.60;;;;;;;;;;6006923;29;20226;-73
2022/06/01 18:33:53;;;;;;;7.87;6.87;;;;;;;;;;6008148;29;20231;-73
2022/06/01 18:37:14;;;;;;;6.43;5.93;;;;;;;;;;6002590;29;20506;-75
2022/06/01 18:40:37;;;;;;;6.97;6.47;;;;;;;;;;6017155;29;20633;-75
2022/06/01 18:43:59;;;;;;;6.03;5.53;;;;;;;;;;6005118;29;20234;-73
2022/06/01 18:47:20;;;;;;;7.50;6.90;;;;;;;;;;6013911;29;20235;-74
2022/06/01 18:50:42;;;;;;;7.87;6.73;;;;;;;;;;6013869;29;20234;-74
2022/06/01 18:54:04;;;;;;;8.07;7.37;;;;;;;;;;6011006;29;20275;-74
2022/06/01 18:57:25;;;;;;;7.27;6.60;;;;;;;;;;5999338;29;20243;-74
2022/06/01 19:04:26;;;;;;;6.50;5.87;;;;;;;;;;6010308;29;20627;-74
2022/06/01 19:07:46;;;;;;;7.00;6.50;;;;;;;;;;6015276;29;20243;-77
2022/06/01 19:11:10;;;;;;;6.63;6.03;;;;;;;;;;5988834;29;20235;-72
2022/06/01 19:14:32;;;;;;;10.67;9.67;;;;;;;;;;6010846;29;20238;-73
2022/06/01 19:17:54;;;;;;;7.60;6.57;;;;;;;;;;6011165;29;20609;-74
2022/06/01 19:21:15;;;;;;;7.60;7.00;;;;;;;;;;6016059;29;20238;-73
2022/06/01 19:24:35;;;;;;;7.20;6.50;;;;;;;;;;6000848;29;20952;-74
2022/06/01 19:27:56;;;;;;;7.30;5.50;;;;;;;;;;6013444;29;20228;-73
2022/06/01 19:31:21;;;;;;;7.67;7.00;;;;;;;;;;5999899;29;20314;-73
2022/06/01 19:34:41;;;;;;;8.57;7.33;;;;;;;;;;6004584;29;20235;-71
2022/06/01 19:45:19;;;;;;;7.73;7.07;;;;;;;;;;6008907;29;20254;-73
2022/06/01 19:48:41;;;;;;;8.33;7.63;;;;;;;;;;6008204;29;20337;-73
2022/06/01 19:52:02;;;;;;;7.97;7.37;;;;;;;;;;6007577;29;20239;-73
2022/06/01 19:55:22;;;;;;;8.87;8.07;;;;;;;;;;6017803;29;20222;-73
2022/06/01 19:58:43;;;;;;;8.07;7.37;;;;;;;;;;5997918;29;20235;-73
2022/06/01 20:02:04;;;;;;;7.03;6.43;;;;;;;;;;6012273;29;20235;-74
2022/06/01 20:05:26;;;;;;;8.00;7.50;;;;;;;;;;6011597;29;20622;-74
2022/06/01 20:08:48;;;;;;;6.83;6.33;;;;;;;;;;6013729;29;20689;-75
2022/06/01 20:15:49;;;;;;;7.00;6.50;;;;;;;;;;6013887;29;21008;-73
2022/06/01 20:19:09;;;;;;;7.63;6.93;;;;;;;;;;6013372;29;20258;-73
2022/06/01 20:22:31;;;;;;;7.47;6.90;;;;;;;;;;6007329;29;20235;-73
2022/06/01 20:25:53;;;;;;;6.90;6.30;;;;;;;;;;6006977;29;20629;-74
2022/06/01 20:29:13;;;;;;;6.77;6.23;;;;;;;;;;6012280;29;20234;-74
2022/06/01 20:32:34;;;;;;;6.40;5.70;;;;;;;;;;6015602;29;20230;-72
2022/06/01 20:35:54;;;;;;;7.57;6.87;;;;;;;;;;6012074;29;20234;-73
2022/06/01 20:39:16;;;;;;;7.53;6.77;;;;;;;;;;6009111;29;20243;-72
2022/06/01 20:42:37;;;;;;;6.27;5.33;;;;;;;;;;6007043;29;20648;-74
2022/06/01 20:46:00;;;;;;;5.70;5.20;;;;;;;;;;6011754;29;20234;-72
2022/06/01 20:49:21;;;;;;;5.63;5.13;;;;;;;;;;6008488;29;20234;-72
2022/06/01 20:52:41;;;;;;;5.47;5.00;;;;;;;;;;6006459;29;20251;-72
2022/06/01 20:56:04;;;;;;;4.53;4.20;;;;;;;;;;6013042;29;20242;-72
2022/06/01 20:59:24;;;;;;;3.83;3.53;;;;;;;;;;6006775;29;20231;-72
2022/06/01 21:02:46;;;;;;;4.20;3.63;;;;;;;;;;6002986;29;20910;-73
2022/06/01 21:06:07;;;;;;;4.40;4.00;;;;;;;;;;6011058;29;20246;-72